Terminal Aerodrome Forecast
Issued by NWS

Current Version | Previous Version | Text Only | Print | Product List | Glossary Off
Versions: 1 2 3 4 5 6 7 8 9 10 11 12 13 14 15 16 17 18 19 20 21 22 23 24

000
FTUS41 KPBZ 032041 AAA
TAFMGW
TAF AMD
KMGW 032041Z 0321/0418 14005KT 2SM -SHRA OVC035
     FM032130 03005KT P6SM VCSH BKN025
     FM040000 07005KT 5SM -SHRA BR OVC020
     FM040300 VRB05KT 3SM -SHRA BR OVC007
     FM041500 32006KT P6SM BKN015=

USA.gov is the U.S. government's official web portal to all federal, state and local government web resources and services.